This is the latest recevied weather packets stored in our database for station/object ZS1OA-5. If no packets are shown the sender has not sent any weather packets the latest 10 day(s).
| Time | Temp. | Humidity | Pressure | Rain* | Wind** | Luminosity | Snow |
|---|---|---|---|---|---|---|---|
| 1778329214 | 20° C | 10% | 1000.8 hPa | 0 mm | - | - | - |
| 1778328914 | 20° C | 10% | 1001.8 hPa | 0 mm | - | - | - |
| 1778328613 | 19.44° C | 7% | 1001.8 hPa | 0 mm | - | - | - |
| 1778328315 | 19.44° C | 7% | 1001.8 hPa | 0 mm | - | - | - |
| 1778328015 | 19.44° C | 7% | 1001.8 hPa | 4.06 mm | - | - | - |
| 1778327715 | 19.44° C | 10% | 1001.8 hPa | 4.06 mm | - | - | - |
| 1778327416 | 20° C | 10% | 1001.8 hPa | 4.06 mm | - | - | - |
| 1778327114 | 20° C | 10% | 1001.8 hPa | 4.06 mm | - | - | - |
| 1778326814 | 20° C | 10% | 1001.8 hPa | 4.06 mm | - | - | - |
| 1778326514 | 20° C | 10% | 1001.8 hPa | 4.06 mm | - | - | - |
| 1778326216 | 19.44° C | 10% | 1002.8 hPa | 4.06 mm | - | - | - |
| 1778325914 | 19.44° C | 10% | 1002.8 hPa | 4.06 mm | - | - | - |
| 1778325607 | 19.44° C | 10% | 1002.8 hPa | 4.06 mm | - | - | - |
| 1778224842 | 15° C | 61% | 1013.8 hPa | 0 mm | - | - | - |
| 1778224542 | 14.44° C | 61% | 1013.8 hPa | 0 mm | - | - | - |
| 1778224242 | 14.44° C | 61% | 1013.8 hPa | 0 mm | - | - | - |
| 1778223941 | 14.44° C | 61% | 1013.8 hPa | 0 mm | - | - | - |
| 1778223644 | 14.44° C | 61% | 1013.8 hPa | 0 mm | - | - | - |
| 1778223341 | 14.44° C | 60% | 1013.8 hPa | 0 mm | - | - | - |
| 1778223042 | 13.89° C | 60% | 1013.8 hPa | 0 mm | - | - | - |
| 1778222741 | 13.89° C | 60% | 1013.8 hPa | 0 mm | - | - | - |
| 1778222442 | 13.89° C | 61% | 1013.8 hPa | 0 mm | - | - | - |
| 1778222142 | 13.89° C | 61% | 1013.8 hPa | 0 mm | - | - | - |
| 1778221845 | 13.33° C | 61% | 1013.8 hPa | 0 mm | - | - | - |
| 1778221543 | 13.33° C | 60% | 1013.8 hPa | 0 mm | - | - | - |
* Rain latest hour (hover to see other rain measurements)
** Current wind speed in m/s (hover to see current wind gust speed)